createdAt,value
2023-05-11T00:02:25.851Z,6.40
2023-05-11T00:07:29.303Z,6.22
2023-05-11T00:12:34.795Z,6.85
2023-05-11T00:22:44.048Z,6.82
2023-05-11T00:27:49.589Z,6.75
2023-05-11T00:32:53.725Z,6.32
2023-05-11T00:37:57.097Z,7.68
2023-05-11T00:43:01.783Z,6.70
2023-05-11T00:48:06.177Z,7.13
2023-05-11T00:53:11.487Z,7.32
2023-05-11T00:58:16.812Z,7.57
2023-05-11T01:08:32.248Z,7.32
2023-05-11T01:13:42.833Z,6.30
2023-05-11T01:18:52.698Z,7.90
2023-05-11T01:24:37.368Z,7.78
2023-05-11T01:30:03.607Z,7.53
2023-05-11T01:35:13.811Z,7.95
2023-05-11T01:40:21.612Z,7.68
2023-05-11T01:45:26.900Z,6.82
2023-05-11T02:00:40.724Z,7.70
2023-05-11T02:05:47.446Z,8.37
2023-05-11T02:10:53.315Z,7.43
2023-05-11T02:21:04.690Z,7.03
2023-05-11T02:26:10.648Z,7.38
2023-05-11T02:31:19.541Z,7.03
2023-05-11T02:36:25.966Z,7.22
2023-05-11T02:41:33.287Z,8.55
2023-05-11T02:46:38.773Z,7.78
2023-05-11T02:51:45.858Z,7.55
2023-05-11T02:56:51.295Z,8.63
2023-05-11T03:01:55.444Z,8.25
2023-05-11T03:07:00.866Z,9.35
2023-05-11T03:17:11.421Z,10.00
2023-05-11T03:22:16.608Z,8.98
2023-05-11T03:27:21.949Z,10.20
2023-05-11T03:32:25.669Z,8.98
2023-05-11T03:37:31.779Z,11.25
2023-05-11T03:42:37.653Z,12.80
2023-05-11T03:47:42.948Z,10.70
2023-05-11T03:52:49.149Z,11.20
2023-05-11T03:57:52.934Z,11.40
2023-05-11T04:02:56.512Z,13.38
2023-05-11T04:08:02.553Z,13.10
2023-05-11T04:13:06.191Z,11.85
2023-05-11T04:18:09.853Z,12.35
2023-05-11T04:23:16.983Z,13.98
2023-05-11T04:28:20.580Z,11.93
2023-05-11T04:33:24.851Z,12.02
2023-05-11T04:38:31.018Z,13.15
2023-05-11T04:48:38.135Z,12.13
2023-05-11T04:53:42.864Z,12.50
2023-05-11T04:58:47.017Z,12.25
2023-05-11T05:03:50.819Z,13.40
2023-05-11T05:08:56.092Z,12.75
2023-05-11T05:19:03.094Z,9.18
2023-05-11T05:24:11.409Z,7.18
2023-05-11T05:29:15.063Z,6.47
2023-05-11T05:34:19.296Z,8.10
2023-05-11T05:39:24.968Z,5.70
2023-05-11T05:44:28.635Z,6.22
2023-05-11T05:49:32.525Z,6.28
2023-05-11T05:54:37.795Z,5.70
2023-05-11T05:59:41.319Z,5.32
2023-05-11T06:04:45.935Z,4.63
2023-05-11T06:09:50.780Z,5.07
2023-05-11T06:14:54.164Z,4.70
2023-05-11T06:19:57.580Z,4.43
2023-05-11T06:25:06.750Z,4.60
2023-05-11T06:30:11.373Z,3.65
2023-05-11T06:35:17.162Z,3.78
2023-05-11T06:40:23.827Z,3.70
2023-05-11T06:45:27.255Z,3.63
2023-05-11T06:50:31.466Z,3.55
2023-05-11T06:55:36.204Z,5.05
2023-05-11T07:00:39.722Z,3.28
2023-05-11T07:05:43.072Z,3.72
2023-05-11T07:10:47.911Z,3.92
2023-05-11T07:15:51.722Z,3.05
2023-05-11T07:20:55.033Z,3.60
2023-05-11T07:25:59.699Z,5.00
2023-05-11T07:31:04.637Z,3.20
2023-05-11T07:36:08.564Z,2.93
2023-05-11T07:41:13.316Z,4.30
2023-05-11T07:46:17.048Z,3.47
2023-05-11T07:51:20.829Z,3.07
2023-05-11T07:56:26.630Z,2.72
2023-05-11T08:01:29.988Z,3.35
2023-05-11T08:06:33.313Z,3.05
2023-05-11T08:11:38.096Z,2.95
2023-05-11T08:16:41.714Z,2.60
2023-05-11T08:21:46.887Z,2.67
2023-05-11T08:26:52.040Z,2.53
2023-05-11T08:31:55.574Z,3.40
2023-05-11T08:37:02.028Z,2.63
2023-05-11T08:42:07.806Z,2.33
2023-05-11T08:47:22.496Z,2.28
2023-05-11T08:52:28.032Z,2.33
2023-05-11T08:57:34.749Z,3.22
2023-05-11T09:02:38.907Z,2.20
2023-05-11T09:07:44.380Z,2.55
2023-05-11T09:12:49.534Z,2.10
2023-05-11T09:17:53.045Z,2.13
2023-05-11T09:22:56.534Z,2.70
2023-05-11T09:28:01.325Z,2.38
2023-05-11T09:33:04.903Z,2.10
2023-05-11T09:38:10.040Z,2.20
2023-05-11T09:43:20.085Z,2.40
2023-05-11T09:48:29.610Z,2.40
2023-05-11T09:53:38.718Z,2.58
2023-05-11T09:58:48.489Z,2.10
2023-05-11T10:04:05.823Z,1.60
2023-05-11T10:09:22.570Z,1.98
2023-05-11T10:14:29.337Z,1.73
2023-05-11T10:19:33.472Z,2.08
2023-05-11T10:24:37.456Z,2.17
2023-05-11T10:29:43.589Z,2.10
2023-05-11T10:34:48.277Z,1.67
2023-05-11T10:39:52.262Z,1.90
2023-05-11T10:45:08.004Z,1.80
2023-05-11T10:50:42.991Z,1.98
2023-05-11T10:56:13.441Z,1.50
2023-05-11T11:01:31.037Z,1.92
2023-05-11T11:06:37.073Z,1.83
2023-05-11T11:11:42.667Z,1.98
2023-05-11T11:17:19.943Z,1.60
2023-05-11T11:22:47.600Z,2.05
2023-05-11T11:27:58.600Z,1.83
2023-05-11T11:33:33.750Z,1.83
2023-05-11T11:44:22.188Z,1.60
2023-05-11T11:49:27.580Z,2.13
2023-05-11T11:54:41.261Z,2.10
2023-05-11T11:59:47.918Z,2.05
2023-05-11T12:04:56.842Z,1.88
2023-05-11T12:10:03.952Z,1.90
2023-05-11T12:15:22.046Z,2.25
2023-05-11T12:20:26.046Z,2.13
2023-05-11T12:25:29.419Z,2.00
2023-05-11T12:30:34.649Z,1.90
2023-05-11T12:35:40.420Z,1.80
2023-05-11T12:40:47.937Z,2.03
2023-05-11T12:45:52.907Z,1.73
2023-05-11T12:50:58.405Z,1.75
2023-05-11T12:56:02.164Z,1.70
2023-05-11T13:01:09.638Z,1.70
2023-05-11T13:06:13.880Z,1.70
2023-05-11T13:11:17.812Z,1.70
2023-05-11T13:16:27.460Z,1.83
2023-05-11T13:21:33.441Z,1.63
2023-05-11T13:26:37.254Z,1.80
2023-05-11T13:31:46.475Z,1.67
2023-05-11T13:36:50.338Z,1.90
2023-05-11T13:41:55.917Z,1.60
2023-05-11T13:47:01.660Z,1.52
2023-05-11T13:52:05.784Z,1.50
2023-05-11T13:57:09.368Z,1.60
2023-05-11T14:02:14.632Z,1.95
2023-05-11T14:07:18.110Z,1.52
2023-05-11T14:12:22.192Z,1.92
2023-05-11T14:17:27.022Z,1.77
2023-05-11T14:22:30.987Z,1.60
2023-05-11T14:27:34.370Z,1.73
2023-05-11T14:32:39.145Z,1.80
2023-05-11T14:37:42.510Z,1.60
2023-05-11T14:42:45.841Z,1.77
2023-05-11T14:47:51.040Z,1.40
2023-05-11T14:52:54.855Z,2.38
2023-05-11T14:57:58.249Z,1.70
2023-05-11T15:03:03.147Z,1.80
2023-05-11T15:08:15.336Z,1.77
2023-05-11T15:13:25.605Z,1.40
2023-05-11T15:18:30.504Z,1.70
2023-05-11T15:23:33.926Z,2.08
2023-05-11T15:28:37.317Z,1.63
2023-05-11T15:33:42.044Z,1.77
2023-05-11T15:38:45.447Z,2.00
2023-05-11T15:43:48.842Z,1.70
2023-05-11T15:48:53.457Z,2.00
2023-05-11T15:53:56.841Z,1.80
2023-05-11T15:59:00.330Z,1.63
2023-05-11T16:04:05.506Z,1.80
2023-05-11T16:09:10.128Z,1.77
2023-05-11T16:14:13.601Z,1.77
2023-05-11T16:19:18.394Z,1.80
2023-05-11T16:24:21.788Z,1.90
2023-05-11T16:34:31.866Z,2.30
2023-05-11T16:39:35.748Z,1.73
2023-05-11T16:44:39.495Z,1.90
2023-05-11T16:49:44.426Z,2.17
2023-05-11T16:59:51.986Z,2.33
2023-05-11T17:04:56.831Z,2.42
2023-05-11T17:10:00.484Z,2.25
2023-05-11T17:15:09.588Z,2.30
2023-05-11T17:20:15.818Z,2.20
2023-05-11T17:25:19.435Z,2.30
2023-05-11T17:30:30.054Z,2.10
2023-05-11T17:35:40.915Z,2.20
2023-05-11T17:40:45.003Z,1.90
2023-05-11T17:45:48.370Z,2.47
2023-05-11T17:50:53.580Z,2.13
2023-05-11T17:55:58.582Z,2.17
2023-05-11T18:06:11.605Z,2.25
2023-05-11T18:11:15.019Z,2.30
2023-05-11T18:16:18.451Z,2.35
2023-05-11T18:21:23.477Z,1.95
2023-05-11T18:26:27.038Z,2.05
2023-05-11T18:31:31.049Z,2.17
2023-05-11T18:36:35.818Z,1.95
2023-05-11T18:41:39.247Z,2.05
2023-05-11T18:46:42.792Z,2.20
2023-05-11T18:51:47.603Z,2.63
2023-05-11T18:56:51.345Z,2.60
2023-05-11T19:01:54.721Z,2.47
2023-05-11T19:06:59.616Z,2.17
2023-05-11T19:12:03.857Z,2.28
2023-05-11T19:17:07.231Z,2.45
2023-05-11T19:22:13.215Z,2.00
2023-05-11T19:27:17.315Z,2.72
2023-05-11T19:32:21.884Z,2.17
2023-05-11T19:37:27.145Z,2.70
2023-05-11T19:42:39.532Z,2.60
2023-05-11T19:47:43.318Z,2.70
2023-05-11T19:52:48.143Z,2.75
2023-05-11T19:57:51.982Z,2.40
2023-05-11T20:02:57.338Z,2.55
2023-05-11T20:08:03.071Z,2.45
2023-05-11T20:13:08.101Z,2.50
2023-05-11T20:23:16.776Z,2.58
2023-05-11T20:28:21.483Z,4.35
2023-05-11T20:38:33.299Z,4.03
2023-05-11T20:43:36.647Z,2.63
2023-05-11T20:48:41.750Z,2.22
2023-05-11T20:53:47.616Z,3.15
2023-05-11T20:58:51.384Z,3.10
2023-05-11T21:03:54.710Z,2.75
2023-05-11T21:08:59.534Z,3.00
2023-05-11T21:14:03.407Z,2.63
2023-05-11T21:19:07.142Z,2.97
2023-05-11T21:24:14.429Z,3.80
2023-05-11T21:29:18.225Z,3.10
2023-05-11T21:34:22.415Z,2.83
2023-05-11T21:39:27.408Z,3.30
2023-05-11T21:44:30.884Z,2.80
2023-05-11T21:49:36.348Z,2.63
2023-05-11T21:54:41.058Z,3.38
2023-05-11T21:59:44.683Z,2.80
2023-05-11T22:04:48.091Z,3.20
2023-05-11T22:09:52.887Z,3.50
2023-05-11T22:14:56.573Z,2.72
2023-05-11T22:19:59.902Z,3.17
2023-05-11T22:25:05.962Z,3.42
2023-05-11T22:30:10.617Z,3.13
2023-05-11T22:35:14.365Z,3.97
2023-05-11T22:40:19.605Z,3.50
2023-05-11T22:45:23.242Z,3.47
2023-05-11T22:50:26.793Z,3.20
2023-05-11T22:55:31.991Z,3.67
2023-05-11T23:27:26.663Z,3.40
2023-05-11T23:32:31.160Z,3.72
2023-05-11T23:37:35.773Z,3.72
2023-05-11T23:42:40.719Z,3.53
2023-05-11T23:47:44.231Z,3.38
2023-05-11T23:52:47.888Z,3.65
2023-05-11T23:57:52.775Z,3.25
